Terminal Aerodrome Forecast
Issued by NWS

Home | Current Version | Previous Version | Text Only | Print | Product List | Glossary Off
Versions: 1 2 3 4 5 6 7 8 9 10 11 12 13 14 15 16 17 18 19

793
FTUS43 KTOP 251133
TAFMHK
TAF
KMHK 251133Z 2512/2612 07004KT P6SM FEW150
     FM251400 15009KT P6SM FEW250
     FM251700 17012G20KT P6SM FEW250
     FM260100 14008KT P6SM BKN140=

USA.gov is the U.S. government's official web portal to all federal, state and local government web resources and services.